Aérodrome :
LOGIN :

S'inscrire | Disclaimer

   EN    FR    IT 

 










Légende :    VFR   VFR Marginal   IFR   IFR Intensif   IFR Très Intensif
Visi : 
Plafond : 
>= 8 km
>= 3000ft
5 à 8 km
1000 à 3000 ft
1500m à 5 km
500 à 1000 ft
800 à 1500m
200 à 500 ft
< 800m
< 200 ft
Symboles :   Orages  Brouillard  Fortes neiges  Fortes précipitations  Vent > 20 kt
SIGMETs :   Divers  Orages  Givrage  Turbulence  Onde Orograph.  Cendres Volcan.






- Altitude de l'aérodrome : 40 ft
- Code IATA : RMI


LIPR - Federico Fellini Int. Rimini

DERNIER METAR :
  • 180120Z AUTO 19005KT 9999 NCD 11/09 Q1018

METARs EXPIRÉS :
  • 180050Z AUTO 18003KT 9999 NCD 11/09 Q1018
  • 180020Z AUTO 19003KT 9999 NCD 12/09 Q1018
  • 172350Z AUTO 18004KT 9999 NCD 12/10 Q1018
  • 172320Z AUTO 18003KT 9999 NCD 11/09 Q1018
  • 172250Z AUTO 21002KT 9999 NCD 12/10 Q1018

TAF TAF LIPR
Valide du 18 à 00h jusqu'au 18 à 09h UTC


172300Z 1800/1809 VRB06KT 9999 FEW040
TEMPO 1800/1806 3000 BR



MET'MAP, la Météo Aéronautique d'un coup d'oeil ! - Copyright ORBIFLY Décembre 2007 - Disclaimer

ORBIFLY MET'MAP TEAM :

Programmation & Développement : Alexandra Zaïnal
Conception & Développement : Baudouin d'Aumeries
Co-Programmation & Développement : Marc-Olivier Méhu
Soutien technique & logistique : Manuel Goepfert

Contact : metmap@orbifly.com




SOURCES & CREDITS :

   NOAA